createdAt,value
2018-06-12T00:00:49.646Z,0.00
2018-06-12T00:02:21.461Z,0.00
2018-06-12T00:03:53.377Z,0.00
2018-06-12T00:05:25.092Z,0.00
2018-06-12T00:06:56.908Z,0.00
2018-06-12T00:08:28.722Z,0.00
2018-06-12T00:10:00.539Z,0.00
2018-06-12T00:11:32.353Z,0.00
2018-06-12T00:13:04.168Z,0.00
2018-06-12T00:14:35.983Z,0.00
2018-06-12T00:16:07.798Z,0.00
2018-06-12T00:17:39.613Z,0.00
2018-06-12T00:19:11.429Z,0.00
2018-06-12T00:20:43.246Z,0.00
2018-06-12T00:22:15.160Z,0.00
2018-06-12T00:23:46.898Z,0.00
2018-06-12T00:25:18.689Z,0.00
2018-06-12T00:26:50.510Z,0.00
2018-06-12T00:28:22.320Z,0.00
2018-06-12T00:29:54.134Z,0.00
2018-06-12T00:31:25.951Z,0.00
2018-06-12T00:32:57.764Z,0.00
2018-06-12T00:34:29.580Z,0.00
2018-06-12T00:36:01.395Z,0.00
2018-06-12T00:37:33.210Z,0.00
2018-06-12T00:39:05.026Z,0.00
2018-06-12T00:40:36.940Z,0.00
2018-06-12T00:42:08.654Z,0.00
2018-06-12T00:43:40.469Z,0.00
2018-06-12T00:45:12.358Z,0.00
2018-06-12T00:46:44.099Z,0.00
2018-06-12T00:49:06.369Z,0.00
2018-06-12T00:50:37.776Z,0.00
2018-06-12T00:52:09.592Z,0.00
2018-06-12T00:53:41.406Z,0.00
2018-06-12T00:55:13.222Z,0.00
2018-06-12T00:56:45.035Z,0.00
2018-06-12T00:58:16.949Z,0.00
2018-06-12T00:59:48.663Z,0.00
2018-06-12T01:01:20.478Z,0.00
2018-06-12T01:02:52.294Z,0.00
2018-06-12T01:04:24.107Z,0.00
2018-06-12T01:05:55.923Z,0.00
2018-06-12T01:07:27.737Z,0.00
2018-06-12T01:08:59.551Z,0.00
2018-06-12T01:10:31.366Z,0.00
2018-06-12T01:12:03.182Z,0.00
2018-06-12T01:13:34.994Z,0.00
2018-06-12T01:15:06.811Z,0.00
2018-06-12T01:16:38.724Z,0.00
2018-06-12T01:18:10.439Z,0.00
2018-06-12T01:19:42.253Z,0.00
2018-06-12T01:21:14.068Z,0.00
2018-06-12T01:22:45.885Z,0.00
2018-06-12T01:24:17.696Z,0.00
2018-06-12T01:25:49.512Z,0.00
2018-06-12T01:27:21.326Z,0.00
2018-06-12T01:28:53.140Z,0.00
2018-06-12T01:30:24.955Z,0.00
2018-06-12T01:31:56.770Z,0.00
2018-06-12T01:33:28.584Z,0.00
2018-06-12T01:35:00.499Z,0.00
2018-06-12T01:36:32.213Z,0.00
2018-06-12T01:38:04.026Z,0.00
2018-06-12T01:39:35.840Z,0.00
2018-06-12T01:41:07.656Z,0.00
2018-06-12T01:42:39.469Z,0.00
2018-06-12T01:44:11.283Z,0.00
2018-06-12T01:45:43.099Z,0.00
2018-06-12T01:47:14.911Z,0.00
2018-06-12T01:48:46.726Z,0.00
2018-06-12T01:50:18.540Z,0.00
2018-06-12T01:51:50.353Z,0.00
2018-06-12T01:53:22.268Z,0.00
2018-06-12T01:54:53.984Z,0.00
2018-06-12T01:56:25.798Z,0.00
2018-06-12T01:57:57.611Z,0.00
2018-06-12T01:59:29.424Z,0.00
2018-06-12T02:01:01.240Z,0.00
2018-06-12T02:02:33.052Z,0.00
2018-06-12T02:04:04.866Z,0.00
2018-06-12T02:05:36.681Z,0.00
2018-06-12T02:07:08.498Z,0.00
2018-06-12T02:08:40.309Z,0.00
2018-06-12T02:10:12.123Z,0.00
2018-06-12T02:11:44.037Z,0.00
2018-06-12T02:13:15.752Z,0.00
2018-06-12T02:14:47.565Z,0.00
2018-06-12T02:16:19.380Z,0.00
2018-06-12T02:17:51.193Z,0.00
2018-06-12T02:19:23.009Z,0.00
2018-06-12T02:20:54.821Z,0.00
2018-06-12T02:22:26.636Z,0.00
2018-06-12T02:23:58.449Z,0.00
2018-06-12T02:25:30.262Z,0.00
2018-06-12T02:27:02.075Z,0.00
2018-06-12T02:28:33.889Z,0.00
2018-06-12T02:30:06.055Z,0.00
2018-06-12T02:31:37.517Z,0.00
2018-06-12T02:33:09.331Z,0.00
2018-06-12T02:34:41.144Z,0.00
2018-06-12T02:36:12.960Z,0.00
2018-06-12T02:37:44.772Z,0.00
2018-06-12T02:39:16.644Z,0.00
2018-06-12T02:40:48.456Z,0.00
2018-06-12T02:42:20.269Z,0.00
2018-06-12T02:43:52.082Z,0.00
2018-06-12T02:45:23.896Z,0.00
2018-06-12T02:46:55.708Z,0.00
2018-06-12T02:48:27.640Z,0.00
2018-06-12T02:49:59.337Z,0.00
2018-06-12T02:51:31.149Z,0.00
2018-06-12T02:53:02.965Z,0.00
2018-06-12T02:54:34.777Z,0.00
2018-06-12T02:56:06.592Z,0.00
2018-06-12T02:57:38.405Z,0.00
2018-06-12T02:59:10.219Z,0.00
2018-06-12T03:00:42.034Z,0.00
2018-06-12T03:02:13.846Z,0.00
2018-06-12T03:03:45.659Z,0.00
2018-06-12T03:05:17.473Z,0.00
2018-06-12T03:06:49.387Z,0.00
2018-06-12T03:08:21.103Z,0.00
2018-06-12T03:09:52.918Z,0.00
2018-06-12T03:11:24.727Z,0.00
2018-06-12T03:12:56.541Z,0.00
2018-06-12T03:14:28.354Z,0.00
2018-06-12T03:16:00.169Z,0.00
2018-06-12T03:17:31.981Z,0.00
2018-06-12T03:19:03.795Z,0.00
2018-06-12T03:20:35.616Z,0.00
2018-06-12T03:22:07.421Z,0.00
2018-06-12T03:23:39.235Z,0.00
2018-06-12T03:25:11.149Z,0.00
2018-06-12T03:26:42.864Z,0.00
2018-06-12T03:28:14.676Z,0.00
2018-06-12T03:29:46.491Z,0.00
2018-06-12T03:31:18.303Z,0.00
2018-06-12T03:32:50.117Z,0.00
2018-06-12T03:34:21.931Z,0.00
2018-06-12T03:35:53.744Z,0.00
2018-06-12T03:37:25.558Z,0.00
2018-06-12T03:38:57.371Z,0.00
2018-06-12T03:40:29.194Z,0.00
2018-06-12T03:42:00.999Z,0.00
2018-06-12T03:43:32.913Z,0.00
2018-06-12T03:45:04.631Z,0.00
2018-06-12T03:46:36.440Z,0.00
2018-06-12T03:48:08.253Z,0.00
2018-06-12T03:49:40.067Z,0.00
2018-06-12T03:51:11.880Z,0.00
2018-06-12T03:52:43.693Z,0.00
2018-06-12T03:54:15.507Z,0.00
2018-06-12T03:55:47.321Z,0.00
2018-06-12T03:57:19.134Z,0.00
2018-06-12T03:58:50.948Z,0.00
2018-06-12T04:00:22.763Z,0.00
2018-06-12T04:01:55.026Z,0.00
2018-06-12T04:03:26.389Z,0.00
2018-06-12T04:04:58.205Z,0.00
2018-06-12T04:06:30.017Z,0.00
2018-06-12T04:08:01.829Z,0.00
2018-06-12T04:09:33.655Z,0.00
2018-06-12T04:11:05.456Z,0.00
2018-06-12T04:12:37.272Z,0.00
2018-06-12T04:14:09.082Z,0.00
2018-06-12T04:15:40.896Z,0.00
2018-06-12T04:17:12.710Z,0.00
2018-06-12T04:18:44.573Z,0.00
2018-06-12T04:20:16.488Z,0.00
2018-06-12T04:21:48.149Z,0.00
2018-06-12T04:23:19.962Z,0.00
2018-06-12T04:24:51.775Z,0.00
2018-06-12T04:26:23.588Z,0.00
2018-06-12T04:27:55.401Z,0.00
2018-06-12T04:29:27.215Z,0.00
2018-06-12T04:30:59.027Z,0.00
2018-06-12T04:32:31.142Z,0.00
2018-06-12T04:34:02.654Z,0.00
2018-06-12T04:35:34.467Z,0.00
2018-06-12T04:37:06.282Z,0.00
2018-06-12T04:38:38.195Z,0.00
2018-06-12T04:40:09.907Z,0.00
2018-06-12T04:41:41.723Z,0.00
2018-06-12T04:43:13.563Z,0.00
2018-06-12T04:44:45.348Z,0.00
2018-06-12T04:46:17.159Z,0.00
2018-06-12T04:47:48.972Z,0.00
2018-06-12T04:49:20.786Z,0.00
2018-06-12T04:50:52.597Z,0.00
2018-06-12T04:52:24.410Z,0.00
2018-06-12T04:53:56.223Z,0.00
2018-06-12T04:55:28.036Z,0.00
2018-06-12T04:56:59.949Z,0.00
2018-06-12T04:58:31.660Z,0.00
2018-06-12T05:00:03.535Z,0.00
2018-06-12T05:01:35.286Z,0.00
2018-06-12T05:03:07.360Z,0.00
2018-06-12T05:04:38.913Z,0.00
2018-06-12T05:06:10.724Z,0.00
2018-06-12T05:07:42.537Z,0.00
2018-06-12T05:09:14.350Z,0.00
2018-06-12T05:10:46.162Z,0.00
2018-06-12T05:12:17.975Z,0.00
2018-06-12T05:13:49.787Z,0.00
2018-06-12T05:15:21.700Z,0.00
2018-06-12T05:16:53.415Z,0.00
2018-06-12T05:18:25.228Z,0.00
2018-06-12T05:19:57.081Z,0.00
2018-06-12T05:30:06.978Z,0.00
2018-06-12T05:31:38.790Z,0.00
2018-06-12T05:33:10.602Z,0.00
2018-06-12T05:34:42.415Z,0.00
2018-06-12T05:36:14.229Z,0.00
2018-06-12T05:37:46.039Z,0.00
2018-06-12T05:39:17.853Z,0.00
2018-06-12T05:40:49.664Z,0.00
2018-06-12T05:42:21.476Z,0.00
2018-06-12T05:43:53.287Z,0.00
2018-06-12T05:45:25.099Z,0.00
2018-06-12T05:46:56.912Z,0.00
2018-06-12T05:48:28.724Z,0.00
2018-06-12T05:50:00.637Z,0.00
2018-06-12T05:51:32.349Z,0.00
2018-06-12T05:53:04.161Z,0.00
2018-06-12T05:54:35.975Z,0.00
2018-06-12T05:56:07.787Z,0.00
2018-06-12T05:57:39.600Z,0.00
2018-06-12T05:59:11.412Z,0.00
2018-06-12T06:00:43.233Z,0.00
2018-06-12T06:02:15.038Z,0.00
2018-06-12T06:03:46.851Z,0.00
2018-06-12T06:05:18.663Z,0.00
2018-06-12T06:06:50.477Z,0.00
2018-06-12T06:08:22.593Z,0.00
2018-06-12T06:09:54.102Z,0.00
2018-06-12T06:11:25.915Z,0.00
2018-06-12T06:12:57.727Z,0.00
2018-06-12T06:14:29.541Z,0.00
2018-06-12T06:16:01.355Z,0.00
2018-06-12T06:17:33.169Z,0.00
2018-06-12T06:19:04.980Z,0.00
2018-06-12T06:20:36.793Z,0.00
2018-06-12T06:22:08.604Z,0.00
2018-06-12T06:23:40.416Z,0.00
2018-06-12T06:25:12.230Z,0.00
2018-06-12T06:26:44.141Z,0.00
2018-06-12T06:28:15.853Z,0.00
2018-06-12T06:29:47.735Z,0.00
2018-06-12T06:31:19.469Z,0.00
2018-06-12T06:32:51.281Z,0.00
2018-06-12T06:34:23.094Z,0.00
2018-06-12T06:35:54.907Z,0.00
2018-06-12T06:37:26.722Z,0.00
2018-06-12T06:38:58.533Z,0.00
2018-06-12T06:40:30.345Z,0.00
2018-06-12T06:42:02.104Z,0.00
2018-06-12T06:43:33.915Z,0.00
2018-06-12T06:45:05.829Z,0.00
2018-06-12T06:46:37.542Z,0.00
2018-06-12T06:48:09.357Z,0.00
2018-06-12T06:49:41.169Z,0.00
2018-06-12T06:51:12.981Z,0.00
2018-06-12T06:52:44.793Z,0.00
2018-06-12T06:54:16.607Z,0.00
2018-06-12T06:55:48.419Z,0.00
2018-06-12T06:57:20.232Z,0.00
2018-06-12T06:58:52.097Z,0.00
2018-06-12T07:00:23.857Z,0.00
2018-06-12T07:01:55.671Z,0.00
2018-06-12T07:03:27.587Z,0.00
2018-06-12T07:05:12.090Z,0.00
2018-06-12T07:06:31.168Z,0.00
2018-06-12T07:08:02.979Z,0.00
2018-06-12T07:09:34.792Z,0.00
2018-06-12T07:11:06.608Z,0.00
2018-06-12T07:12:38.417Z,0.00
2018-06-12T07:14:10.229Z,0.00
2018-06-12T07:15:42.042Z,0.00
2018-06-12T07:17:13.855Z,0.00
2018-06-12T07:18:45.668Z,0.00
2018-06-12T07:20:17.482Z,0.00
2018-06-12T07:21:49.339Z,0.00
2018-06-12T07:23:21.053Z,0.00
2018-06-12T07:24:52.867Z,0.00
2018-06-12T07:26:24.678Z,0.00
2018-06-12T07:27:56.490Z,0.00
2018-06-12T07:29:28.303Z,0.00
2018-06-12T07:31:00.116Z,0.00
2018-06-12T07:32:31.930Z,0.00
2018-06-12T07:34:03.742Z,0.00
2018-06-12T07:35:35.556Z,0.00
2018-06-12T07:37:07.368Z,0.00
2018-06-12T07:38:39.181Z,0.00
2018-06-12T07:40:11.094Z,0.00
2018-06-12T07:41:42.806Z,0.00
2018-06-12T07:43:14.621Z,0.00
2018-06-12T07:44:46.433Z,0.00
2018-06-12T07:46:18.245Z,0.00
2018-06-12T07:47:50.057Z,0.00
2018-06-12T07:49:21.869Z,0.00
2018-06-12T07:50:53.683Z,0.00
2018-06-12T07:52:25.495Z,0.00
2018-06-12T07:53:57.310Z,0.00
2018-06-12T07:55:29.121Z,0.00
2018-06-12T07:57:00.932Z,0.00
2018-06-12T07:58:32.846Z,0.00
2018-06-12T08:00:04.557Z,0.00
2018-06-12T08:01:36.372Z,0.00
2018-06-12T08:03:08.186Z,0.00
2018-06-12T08:04:39.994Z,0.00
2018-06-12T08:06:11.807Z,0.00
2018-06-12T08:07:43.620Z,0.00
2018-06-12T08:09:15.432Z,0.00
2018-06-12T08:10:47.245Z,0.00
2018-06-12T08:12:19.058Z,0.00
2018-06-12T08:13:50.869Z,0.00
2018-06-12T08:15:22.683Z,0.00
2018-06-12T08:16:54.595Z,0.00
2018-06-12T08:18:26.308Z,0.00
2018-06-12T08:19:58.119Z,0.00
2018-06-12T08:21:29.932Z,0.00
2018-06-12T08:23:01.746Z,0.00
2018-06-12T08:24:33.560Z,0.00
2018-06-12T08:26:05.369Z,0.00
2018-06-12T08:27:37.183Z,0.00
2018-06-12T08:29:08.993Z,0.00
2018-06-12T08:30:40.826Z,0.00
2018-06-12T08:32:12.619Z,0.00
2018-06-12T08:33:44.432Z,0.00
2018-06-12T08:35:16.347Z,0.00
2018-06-12T08:36:48.056Z,0.00
2018-06-12T08:38:19.870Z,0.00
2018-06-12T08:39:51.726Z,0.00
2018-06-12T08:41:23.496Z,0.00
2018-06-12T08:42:55.305Z,0.00
2018-06-12T08:44:27.118Z,0.00
2018-06-12T08:45:58.929Z,0.00
2018-06-12T08:47:30.742Z,0.00
2018-06-12T08:49:02.554Z,0.00
2018-06-12T08:50:34.367Z,0.00
2018-06-12T08:52:06.180Z,0.00
2018-06-12T08:53:38.092Z,0.00
2018-06-12T08:55:09.803Z,0.00
2018-06-12T08:56:41.616Z,0.00
2018-06-12T08:58:13.430Z,0.00
2018-06-12T08:59:45.242Z,0.00
2018-06-12T09:01:17.053Z,0.00
2018-06-12T09:02:48.865Z,0.00
2018-06-12T09:04:20.676Z,0.00
2018-06-12T09:05:52.490Z,0.00
2018-06-12T09:07:24.301Z,0.00
2018-06-12T09:08:56.114Z,0.00
2018-06-12T09:10:27.926Z,0.00
2018-06-12T09:11:59.839Z,0.00
2018-06-12T09:13:31.549Z,0.00
2018-06-12T09:15:03.365Z,0.00
2018-06-12T09:16:35.175Z,0.00
2018-06-12T09:18:06.986Z,0.00
2018-06-12T09:19:38.797Z,0.00
2018-06-12T09:21:10.608Z,0.00
2018-06-12T09:22:42.421Z,0.00
2018-06-12T09:24:14.233Z,0.00
2018-06-12T09:25:46.084Z,0.00
2018-06-12T09:27:17.857Z,0.00
2018-06-12T09:28:50.284Z,0.00
2018-06-12T09:30:21.580Z,0.00
2018-06-12T09:31:53.292Z,0.00
2018-06-12T09:33:25.105Z,0.00
2018-06-12T09:34:56.916Z,0.00
2018-06-12T09:36:28.729Z,5.63
2018-06-12T09:38:00.540Z,5.63
2018-06-12T09:39:32.352Z,5.63
2018-06-12T09:41:04.164Z,11.25
2018-06-12T09:42:35.980Z,11.25
2018-06-12T09:44:07.789Z,16.88
2018-06-12T09:45:39.601Z,16.88
2018-06-12T09:47:11.412Z,22.50
2018-06-12T09:48:43.325Z,28.13
2018-06-12T09:50:15.037Z,33.75
2018-06-12T09:51:46.849Z,39.38
2018-06-12T09:53:18.662Z,39.38
2018-06-12T09:54:50.474Z,45.00
2018-06-12T09:56:22.288Z,50.63
2018-06-12T09:57:54.099Z,56.25
2018-06-12T09:59:25.912Z,67.50
2018-06-12T10:00:57.724Z,73.13
2018-06-12T10:02:29.538Z,118.13
2018-06-12T10:04:01.352Z,135.00
2018-06-12T10:05:33.162Z,146.25
2018-06-12T10:07:05.075Z,157.50
2018-06-12T10:08:36.789Z,168.75
2018-06-12T10:10:08.601Z,185.63
2018-06-12T10:14:44.042Z,219.38
2018-06-12T10:16:15.854Z,230.63
2018-06-12T10:17:47.668Z,253.13
2018-06-12T10:19:19.481Z,264.38
2018-06-12T10:20:51.297Z,281.25
2018-06-12T10:22:23.109Z,303.75
2018-06-12T10:23:54.923Z,326.25
2018-06-12T10:25:26.738Z,348.75
2018-06-12T10:26:59.187Z,371.25
2018-06-12T10:30:02.188Z,416.25
2018-06-12T10:31:33.996Z,433.13
2018-06-12T10:33:05.813Z,461.25
2018-06-12T10:34:37.628Z,478.13
2018-06-12T10:36:09.576Z,489.38
2018-06-12T10:37:41.259Z,506.25
2018-06-12T10:39:13.073Z,523.13
2018-06-12T10:40:45.115Z,528.75
2018-06-12T10:45:20.439Z,573.75
2018-06-12T10:46:52.457Z,585.00
2018-06-12T10:48:24.274Z,596.25
2018-06-12T10:51:27.610Z,630.00
2018-06-12T10:52:59.421Z,646.88
2018-06-12T10:54:31.441Z,630.00
2018-06-12T10:56:03.056Z,635.63
2018-06-12T10:57:34.874Z,613.13
2018-06-12T11:00:38.511Z,652.50
2018-06-12T11:02:11.065Z,697.50
2018-06-12T11:03:42.248Z,720.00
2018-06-12T11:05:14.801Z,708.75
2018-06-12T11:06:45.786Z,720.00
2018-06-12T11:08:17.661Z,753.75
2018-06-12T11:09:49.422Z,753.75
2018-06-12T11:11:21.240Z,770.63
2018-06-12T11:12:53.058Z,793.13
2018-06-12T11:14:24.926Z,804.38
2018-06-12T11:15:56.697Z,815.63
2018-06-12T11:17:28.567Z,815.63
2018-06-12T11:22:04.379Z,877.50
2018-06-12T11:23:35.794Z,900.00
2018-06-12T11:25:07.616Z,939.38
2018-06-12T11:26:39.439Z,950.63
2018-06-12T11:28:11.256Z,973.13
2018-06-12T11:29:43.075Z,1051.88
2018-06-12T11:31:14.897Z,1141.88
2018-06-12T11:32:46.715Z,1153.13
2018-06-12T11:34:18.536Z,1220.63
2018-06-12T11:37:22.177Z,1271.25
2018-06-12T11:38:53.996Z,1271.25
2018-06-12T11:40:25.918Z,1344.38
2018-06-12T11:41:57.640Z,1327.50
2018-06-12T11:43:29.463Z,1378.13
2018-06-12T11:45:01.279Z,1400.63
2018-06-12T11:46:33.103Z,1378.13
2018-06-12T11:48:04.919Z,1451.25
2018-06-12T11:49:37.060Z,1417.50
2018-06-12T11:51:08.561Z,1501.88
2018-06-12T11:55:44.223Z,1569.38
2018-06-12T11:57:16.147Z,1501.88
2018-06-12T11:58:47.666Z,1653.75
2018-06-12T12:00:19.485Z,1586.25
2018-06-12T12:01:51.381Z,1563.75
2018-06-12T12:03:23.126Z,1513.13
2018-06-12T12:04:54.970Z,1653.75
2018-06-12T12:06:27.001Z,1698.75
2018-06-12T12:07:58.894Z,1614.38
2018-06-12T12:09:30.714Z,1710.00
2018-06-12T12:11:02.232Z,1693.13
2018-06-12T12:12:34.086Z,1659.38
2018-06-12T12:14:06.176Z,1839.38
2018-06-12T12:15:37.778Z,1833.75
2018-06-12T12:17:09.515Z,1963.13
2018-06-12T12:18:41.337Z,1828.13
2018-06-12T12:20:13.159Z,1828.13
2018-06-12T12:23:17.044Z,1935.00
2018-06-12T12:24:48.630Z,1906.88
2018-06-12T12:26:20.444Z,1856.25
2018-06-12T12:27:52.274Z,1940.63
2018-06-12T12:29:24.090Z,2075.63
2018-06-12T12:30:55.909Z,2041.88
2018-06-12T12:32:28.034Z,2058.75
2018-06-12T12:33:59.553Z,2058.75
2018-06-12T12:35:31.908Z,1968.75
2018-06-12T12:37:03.197Z,2098.13
2018-06-12T12:40:06.840Z,2070.00
2018-06-12T12:41:38.669Z,2019.38
2018-06-12T12:43:10.788Z,1912.50
2018-06-12T12:44:42.305Z,1856.25
2018-06-12T12:46:14.329Z,1805.63
2018-06-12T12:47:46.331Z,1760.63
2018-06-12T12:50:49.856Z,1631.25
2018-06-12T12:52:21.636Z,1766.25
2018-06-12T12:53:53.281Z,2025.00
2018-06-12T12:55:25.067Z,2058.75
2018-06-12T12:56:57.195Z,2098.13
2018-06-12T13:00:00.615Z,1980.00
2018-06-12T13:01:32.884Z,1681.88
2018-06-12T13:03:04.190Z,1518.75
2018-06-12T13:04:36.210Z,1507.50
2018-06-12T13:06:07.973Z,1541.25
2018-06-12T13:09:12.952Z,1125.00
2018-06-12T13:10:45.217Z,1648.13
2018-06-12T13:12:17.218Z,1670.63
2018-06-12T13:13:47.481Z,1721.25
2018-06-12T13:15:19.494Z,1501.88
2018-06-12T13:16:50.773Z,1726.88
2018-06-12T13:19:54.215Z,1850.63
2018-06-12T13:21:26.044Z,1906.88
2018-06-12T13:22:58.393Z,1985.63
2018-06-12T13:24:29.690Z,2311.88
2018-06-12T13:27:33.694Z,2131.88
2018-06-12T13:30:36.972Z,1344.38
2018-06-12T13:32:08.797Z,967.50
2018-06-12T13:35:12.440Z,2227.50
2018-06-12T13:38:16.085Z,2430.00
2018-06-12T13:39:48.212Z,2587.50
2018-06-12T13:41:19.736Z,2593.13
2018-06-12T13:42:51.551Z,2896.88
2018-06-12T13:45:55.196Z,2947.50
2018-06-12T13:47:27.120Z,2143.13
2018-06-12T13:48:59.044Z,2553.75
2018-06-12T13:50:30.665Z,1490.63
2018-06-12T13:53:34.630Z,1873.13
2018-06-12T13:56:37.962Z,1260.00
2018-06-12T13:58:09.953Z,1231.88
2018-06-12T13:59:41.601Z,1254.38
2018-06-12T14:01:14.147Z,1597.50
2018-06-12T14:02:45.246Z,1608.75
2018-06-12T14:04:17.289Z,1923.75
2018-06-12T14:07:20.817Z,1338.75
2018-06-12T14:10:24.364Z,1923.75
2018-06-12T14:11:56.199Z,2216.25
2018-06-12T14:13:28.642Z,2525.63
2018-06-12T14:15:00.513Z,2520.00
2018-06-12T14:18:03.524Z,2418.75
2018-06-12T14:19:35.294Z,2598.75
2018-06-12T14:21:07.168Z,2520.00
2018-06-12T14:22:39.475Z,2469.38
2018-06-12T14:24:10.968Z,2469.38
2018-06-12T14:25:42.697Z,2379.38
2018-06-12T14:27:14.622Z,2131.88
2018-06-12T14:28:46.440Z,2160.00
2018-06-12T14:30:18.063Z,2632.50
2018-06-12T14:31:50.090Z,2700.00
2018-06-12T14:33:21.709Z,2722.50
2018-06-12T14:34:53.535Z,2919.38
2018-06-12T14:37:57.388Z,3009.38
2018-06-12T14:39:29.010Z,2784.38
2018-06-12T14:41:00.843Z,2750.63
2018-06-12T14:42:33.191Z,2868.75
2018-06-12T14:44:04.682Z,2823.75
2018-06-12T14:47:08.133Z,2823.75
2018-06-12T14:48:39.957Z,2514.38
2018-06-12T14:50:11.781Z,2565.00
2018-06-12T14:53:15.432Z,2452.50
2018-06-12T14:56:19.083Z,1850.63
2018-06-12T14:57:51.110Z,2008.13
2018-06-12T14:59:22.734Z,1991.25
2018-06-12T15:00:54.558Z,2160.00
2018-06-12T15:02:27.025Z,2098.13
2018-06-12T15:03:58.208Z,2053.13
2018-06-12T15:05:30.033Z,1991.25
2018-06-12T15:07:02.083Z,2041.88
2018-06-12T15:08:33.686Z,2058.75
2018-06-12T15:10:05.510Z,1912.50
2018-06-12T15:13:09.236Z,1856.25
2018-06-12T15:16:12.808Z,1687.50
2018-06-12T15:17:44.641Z,1530.00
2018-06-12T15:19:16.465Z,1681.88
2018-06-12T15:20:48.488Z,2199.38
2018-06-12T15:23:52.237Z,2143.13
2018-06-12T15:25:23.781Z,2126.25
2018-06-12T15:26:55.584Z,1951.88
2018-06-12T15:28:27.409Z,2019.38
2018-06-12T15:29:59.233Z,1906.88
2018-06-12T15:31:31.057Z,1923.75
2018-06-12T15:34:34.709Z,1738.13
2018-06-12T15:36:06.734Z,1530.00
2018-06-12T15:39:10.199Z,1479.38
2018-06-12T15:40:43.046Z,1569.38
2018-06-12T15:42:14.236Z,1721.25
2018-06-12T15:45:17.594Z,2165.63
2018-06-12T15:46:49.459Z,2137.50
2018-06-12T15:48:21.128Z,1861.88
2018-06-12T15:51:24.821Z,1996.88
2018-06-12T15:52:56.912Z,1980.00
2018-06-12T15:54:29.200Z,1878.75
2018-06-12T15:56:00.319Z,1473.75
2018-06-12T15:57:32.197Z,1237.50
2018-06-12T15:59:03.907Z,1203.75
2018-06-12T16:00:35.853Z,1153.13
2018-06-12T16:02:07.560Z,1113.75
2018-06-12T16:06:43.252Z,1209.38
2018-06-12T16:08:15.332Z,1248.75
2018-06-12T16:11:18.516Z,1057.50
2018-06-12T16:12:50.612Z,933.75
2018-06-12T16:15:53.993Z,849.38
2018-06-12T16:17:26.095Z,821.25
2018-06-12T16:20:30.051Z,770.63
2018-06-12T16:22:01.756Z,759.38
2018-06-12T16:23:33.590Z,753.75
2018-06-12T16:25:04.930Z,753.75
2018-06-12T16:26:36.731Z,753.75
2018-06-12T16:28:08.591Z,759.38
2018-06-12T16:29:40.531Z,748.13
2018-06-12T16:31:12.501Z,753.75
2018-06-12T16:32:44.344Z,765.00
2018-06-12T16:37:19.718Z,843.75
2018-06-12T16:38:51.706Z,905.63
2018-06-12T16:41:55.096Z,1181.25
2018-06-12T16:43:26.780Z,1203.75
2018-06-12T16:45:01.154Z,1378.13
2018-06-12T16:46:30.637Z,1243.13
2018-06-12T16:49:34.083Z,1226.25
2018-06-12T16:51:06.053Z,1248.75
2018-06-12T16:52:38.681Z,1215.00
2018-06-12T16:54:10.133Z,1288.13
2018-06-12T16:55:41.364Z,1299.38
2018-06-12T16:57:13.292Z,1141.88
2018-06-12T16:58:45.015Z,1035.00
2018-06-12T17:00:17.030Z,1046.25
2018-06-12T17:01:48.728Z,1040.63
2018-06-12T17:03:20.749Z,961.88
2018-06-12T17:04:52.578Z,939.38
2018-06-12T17:07:56.582Z,973.13
2018-06-12T17:09:27.841Z,1018.13
2018-06-12T17:14:03.268Z,1023.75
2018-06-12T17:15:35.211Z,961.88
2018-06-12T17:17:06.899Z,967.50
2018-06-12T17:18:38.716Z,787.50
2018-06-12T17:23:15.589Z,736.88
2018-06-12T17:24:45.997Z,708.75
2018-06-12T17:26:18.353Z,663.75
2018-06-12T17:27:49.640Z,613.13
2018-06-12T17:29:21.462Z,585.00
2018-06-12T17:30:53.285Z,562.50
2018-06-12T17:32:25.311Z,523.13
2018-06-12T17:33:57.234Z,495.00
2018-06-12T17:37:01.590Z,461.25
2018-06-12T17:38:32.922Z,450.00
2018-06-12T17:40:04.963Z,450.00
2018-06-12T17:41:36.091Z,450.00
2018-06-12T17:43:08.047Z,444.38
2018-06-12T17:46:02.126Z,438.75
2018-06-12T17:47:33.320Z,433.13
2018-06-12T17:49:06.169Z,433.13
2018-06-12T17:53:40.664Z,410.63
2018-06-12T17:55:12.974Z,388.13
2018-06-12T17:56:44.297Z,376.88
2018-06-12T17:59:47.897Z,360.00
2018-06-12T18:01:20.008Z,360.00
2018-06-12T18:02:51.548Z,343.13
2018-06-12T18:04:23.356Z,337.50
2018-06-12T18:05:55.168Z,326.25
2018-06-12T18:07:26.988Z,309.38
2018-06-12T18:08:59.317Z,292.50
2018-06-12T18:10:30.931Z,281.25
2018-06-12T18:12:02.456Z,270.00
2018-06-12T18:15:06.252Z,241.88
2018-06-12T18:16:38.354Z,230.63
2018-06-12T18:18:10.092Z,225.00
2018-06-12T18:19:41.592Z,225.00
2018-06-12T18:21:13.416Z,225.00
2018-06-12T18:24:17.013Z,225.00
2018-06-12T18:25:49.033Z,225.00
2018-06-12T18:27:20.652Z,225.00
2018-06-12T18:28:52.470Z,219.38
2018-06-12T18:30:24.296Z,219.38
2018-06-12T18:31:56.416Z,213.75
2018-06-12T18:33:28.031Z,213.75
2018-06-12T18:34:59.749Z,202.50
2018-06-12T18:36:31.569Z,196.88
2018-06-12T18:41:07.560Z,174.38
2018-06-12T18:42:38.897Z,157.50
2018-06-12T18:44:10.666Z,146.25
2018-06-12T18:45:42.496Z,146.25
2018-06-12T18:47:14.305Z,146.25
2018-06-12T18:48:46.124Z,140.63
2018-06-12T18:50:17.945Z,140.63
2018-06-12T18:51:49.762Z,135.00
2018-06-12T18:53:21.683Z,135.00
2018-06-12T18:54:53.404Z,135.00
2018-06-12T18:56:25.220Z,135.00
2018-06-12T18:57:57.060Z,129.38
2018-06-12T19:01:00.677Z,118.13
2018-06-12T19:02:32.499Z,106.88
2018-06-12T19:05:36.143Z,101.25
2018-06-12T19:07:08.055Z,95.63
2018-06-12T19:08:40.077Z,90.00
2018-06-12T19:10:11.591Z,90.00
2018-06-12T19:11:43.412Z,84.38
2018-06-12T19:13:15.343Z,84.38
2018-06-12T19:14:47.048Z,84.38
2018-06-12T19:17:50.684Z,78.75
2018-06-12T19:19:22.548Z,78.75
2018-06-12T19:20:54.322Z,78.75
2018-06-12T19:22:26.141Z,73.13
2018-06-12T19:23:57.960Z,73.13
2018-06-12T19:25:29.778Z,67.50
2018-06-12T19:27:01.597Z,67.50
2018-06-12T19:28:33.414Z,61.88
2018-06-12T19:30:05.235Z,61.88
2018-06-12T19:31:37.153Z,56.25
2018-06-12T19:34:40.687Z,45.00
2018-06-12T19:36:12.525Z,45.00
2018-06-12T19:37:44.632Z,39.38
2018-06-12T19:39:16.142Z,39.38
2018-06-12T19:40:48.013Z,33.75
2018-06-12T19:42:19.894Z,33.75
2018-06-12T19:43:51.597Z,33.75
2018-06-12T19:45:23.416Z,33.75
2018-06-12T19:46:55.233Z,33.75
2018-06-12T19:48:27.051Z,33.75
2018-06-12T19:51:30.799Z,33.75
2018-06-12T19:53:02.515Z,33.75
2018-06-12T19:54:34.333Z,28.13
2018-06-12T19:56:06.142Z,22.50
2018-06-12T19:57:37.961Z,22.50
2018-06-12T19:59:09.777Z,22.50
2018-06-12T20:00:41.600Z,16.88
2018-06-12T20:02:13.535Z,16.88
2018-06-12T20:03:45.232Z,11.25
2018-06-12T20:05:17.355Z,11.25
2018-06-12T20:08:20.686Z,11.25
2018-06-12T20:09:52.959Z,11.25
2018-06-12T20:11:24.322Z,11.25
2018-06-12T20:12:56.140Z,5.63
2018-06-12T20:14:27.957Z,5.63
2018-06-12T20:16:00.012Z,5.63
2018-06-12T20:17:31.592Z,5.63
2018-06-12T20:19:03.411Z,5.63
2018-06-12T20:20:35.225Z,5.63
2018-06-12T20:22:07.044Z,0.00
2018-06-12T20:23:38.861Z,0.00
2018-06-12T20:25:10.679Z,0.00
2018-06-12T20:26:42.497Z,0.00
2018-06-12T20:28:14.416Z,0.00
2018-06-12T20:29:46.132Z,0.00
2018-06-12T20:31:17.960Z,0.00
2018-06-12T20:32:49.768Z,0.00
2018-06-12T20:34:21.620Z,0.00
2018-06-12T20:35:53.421Z,0.00
2018-06-12T20:37:25.220Z,0.00
2018-06-12T20:38:57.037Z,0.00
2018-06-12T20:40:28.854Z,0.00
2018-06-12T20:42:00.701Z,0.00
2018-06-12T20:43:32.490Z,0.00
2018-06-12T20:45:04.307Z,0.00
2018-06-12T20:46:36.225Z,0.00
2018-06-12T20:48:07.995Z,0.00
2018-06-12T20:49:39.758Z,0.00
2018-06-12T20:51:11.577Z,0.00
2018-06-12T20:52:43.394Z,0.00
2018-06-12T20:54:15.213Z,0.00
2018-06-12T20:55:47.031Z,0.00
2018-06-12T20:57:18.848Z,0.00
2018-06-12T20:58:50.667Z,0.00
2018-06-12T21:00:22.484Z,0.00
2018-06-12T21:01:54.300Z,0.00
2018-06-12T21:03:26.119Z,0.00
2018-06-12T21:04:58.036Z,0.00
2018-06-12T21:06:29.755Z,0.00
2018-06-12T21:08:01.579Z,0.00
2018-06-12T21:09:33.389Z,0.00
2018-06-12T21:11:05.210Z,0.00
2018-06-12T21:12:37.035Z,0.00
2018-06-12T21:14:08.843Z,0.00
2018-06-12T21:15:40.661Z,0.00
2018-06-12T21:17:12.480Z,0.00
2018-06-12T21:18:44.297Z,0.00
2018-06-12T21:20:16.115Z,0.00
2018-06-12T21:21:47.933Z,0.00
2018-06-12T21:23:19.851Z,0.00
2018-06-12T21:24:51.567Z,0.00
2018-06-12T21:26:23.385Z,0.00
2018-06-12T21:27:55.221Z,0.00
2018-06-12T21:29:27.024Z,0.00
2018-06-12T21:30:58.839Z,0.00
2018-06-12T21:32:30.656Z,0.00
2018-06-12T21:34:02.473Z,0.00